Time;durP1;ratioP1;P1;durP2;ratioP2;P2;SDS_P1;SDS_P2;PMS_P1;PMS_P2;Temp;Humidity;BMP_temperature;BMP_pressure;BME280_temperature;BME280_humidity;BME280_pressure;Samples;Min_cycle;Max_cycle;Signal;HPM_P1;HPM_P2
2023/12/06 00:00:29;;;;;;;1.27;1.17;;;3.60;99.90;;;;;;5019588;28;20273;-71
2023/12/06 00:02:55;;;;;;;1.10;1.00;;;3.60;99.90;;;;;;5027365;28;20340;-71
2023/12/06 00:05:21;;;;;;;1.77;1.23;;;3.60;99.90;;;;;;5025051;28;20547;-71
2023/12/06 00:07:47;;;;;;;1.67;1.40;;;3.60;99.90;;;;;;5016614;28;20271;-71
2023/12/06 00:10:12;;;;;;;1.27;1.17;;;3.60;99.90;;;;;;5020690;28;20469;-71
2023/12/06 00:12:38;;;;;;;1.00;0.93;;;3.60;99.90;;;;;;5021207;28;20198;-71
2023/12/06 00:15:04;;;;;;;3.37;1.30;;;3.60;99.90;;;;;;5022556;28;20547;-71
2023/12/06 00:17:29;;;;;;;1.47;0.97;;;3.60;99.90;;;;;;5015030;28;20175;-71
2023/12/06 00:19:55;;;;;;;1.70;1.60;;;3.60;99.90;;;;;;5011885;28;20433;-71
2023/12/06 00:22:20;;;;;;;1.20;1.10;;;3.60;99.90;;;;;;5025627;28;20245;-71
2023/12/06 00:24:46;;;;;;;1.27;1.17;;;3.60;99.90;;;;;;5015023;28;20261;-71
2023/12/06 00:27:11;;;;;;;1.60;1.23;;;3.60;99.90;;;;;;5013686;28;20231;-70
2023/12/06 00:29:37;;;;;;;1.70;1.50;;;3.60;99.90;;;;;;5010871;28;20178;-70
2023/12/06 00:32:03;;;;;;;1.10;1.00;;;3.60;99.90;;;;;;5012543;28;20699;-70
2023/12/06 00:34:28;;;;;;;1.07;1.00;;;3.60;99.90;;;;;;5030528;28;20245;-71
2023/12/06 00:36:54;;;;;;;1.40;1.30;;;3.60;99.90;;;;;;5002358;28;20183;-71
2023/12/06 00:39:19;;;;;;;0.80;0.80;;;3.60;99.90;;;;;;5016698;28;20174;-71
2023/12/06 00:41:45;;;;;;;2.97;0.97;;;3.60;99.90;;;;;;5009733;28;20710;-70
2023/12/06 00:44:10;;;;;;;1.50;1.00;;;3.60;99.90;;;;;;5021554;28;20210;-70
2023/12/06 00:46:36;;;;;;;2.20;0.87;;;3.60;99.90;;;;;;5020621;28;20174;-70
2023/12/06 00:49:03;;;;;;;1.17;1.07;;;3.60;99.90;;;;;;5013002;28;20186;-70
2023/12/06 00:51:28;;;;;;;0.80;0.80;;;3.60;99.90;;;;;;5024754;28;20197;-70
2023/12/06 00:53:54;;;;;;;0.70;0.70;;;3.60;99.90;;;;;;5002674;28;20422;-70
2023/12/06 00:56:19;;;;;;;1.10;1.00;;;3.60;99.90;;;;;;5012354;28;20167;-71
2023/12/06 00:58:45;;;;;;;1.13;1.03;;;3.60;99.90;;;;;;5015329;28;20191;-70
2023/12/06 01:01:12;;;;;;;0.77;0.77;;;3.60;99.90;;;;;;5018547;28;20187;-70
2023/12/06 01:03:40;;;;;;;1.40;1.00;;;3.60;99.90;;;;;;5016233;28;20297;-71
2023/12/06 01:06:06;;;;;;;1.20;1.07;;;3.60;99.90;;;;;;5021464;28;20482;-70
2023/12/06 01:08:31;;;;;;;1.53;1.40;;;3.60;99.90;;;;;;5018539;28;20421;-70
2023/12/06 01:10:57;;;;;;;1.63;1.47;;;3.60;99.90;;;;;;5015220;28;20467;-71
2023/12/06 01:13:22;;;;;;;1.53;1.17;;;3.60;99.90;;;;;;5014208;28;20194;-71
2023/12/06 01:15:48;;;;;;;1.57;1.00;;;3.60;99.90;;;;;;5013907;28;20171;-71
2023/12/06 01:18:13;;;;;;;1.10;1.00;;;3.60;99.90;;;;;;5029757;28;20170;-71
2023/12/06 01:20:39;;;;;;;0.93;0.90;;;3.50;99.90;;;;;;5022511;28;20560;-71
2023/12/06 01:23:05;;;;;;;1.00;0.90;;;3.50;99.90;;;;;;5020103;28;20286;-71
2023/12/06 01:25:33;;;;;;;1.10;0.97;;;3.50;99.90;;;;;;5019768;28;20203;-71
2023/12/06 01:27:58;;;;;;;1.50;1.10;;;3.50;99.90;;;;;;5011649;28;20958;-71
2023/12/06 01:30:24;;;;;;;1.30;1.20;;;3.50;99.90;;;;;;5018084;28;20445;-71
2023/12/06 01:32:50;;;;;;;1.00;0.90;;;3.50;99.90;;;;;;5008195;28;20210;-71
2023/12/06 01:35:15;;;;;;;1.10;1.00;;;3.50;99.90;;;;;;5029059;28;20186;-71
2023/12/06 01:37:41;;;;;;;1.43;1.33;;;3.50;99.90;;;;;;5011558;28;20253;-71
2023/12/06 01:40:08;;;;;;;1.17;1.00;;;3.50;99.90;;;;;;5016708;28;20187;-71
2023/12/06 01:42:34;;;;;;;1.10;0.87;;;3.50;99.90;;;;;;5015668;28;20200;-71
2023/12/06 01:45:00;;;;;;;1.40;1.30;;;3.50;99.90;;;;;;5013667;28;20439;-71
2023/12/06 01:47:27;;;;;;;1.40;1.30;;;3.50;99.90;;;;;;5014772;28;21003;-71
2023/12/06 01:49:54;;;;;;;0.90;0.90;;;3.50;99.90;;;;;;5012422;28;20641;-71
2023/12/06 01:52:20;;;;;;;1.90;1.00;;;3.50;99.90;;;;;;5019405;28;20508;-71
2023/12/06 01:54:47;;;;;;;0.90;0.90;;;3.50;99.90;;;;;;5011158;28;20938;-71
2023/12/06 01:57:12;;;;;;;1.03;0.97;;;3.50;99.90;;;;;;5003946;28;20423;-71
2023/12/06 01:59:39;;;;;;;0.80;0.80;;;3.50;99.90;;;;;;5022726;28;20973;-71
2023/12/06 02:02:05;;;;;;;0.97;0.70;;;3.50;99.90;;;;;;5018683;28;20288;-71
2023/12/06 02:04:32;;;;;;;0.60;0.60;;;3.50;99.90;;;;;;5023833;28;20441;-70
2023/12/06 02:06:58;;;;;;;0.90;0.90;;;3.50;99.90;;;;;;5017692;28;20233;-71
2023/12/06 02:09:25;;;;;;;1.00;0.90;;;3.50;99.90;;;;;;5018971;28;20441;-71
2023/12/06 02:11:50;;;;;;;1.03;0.80;;;3.50;99.90;;;;;;5022517;28;20298;-71
2023/12/06 02:14:16;;;;;;;0.70;0.70;;;3.50;99.90;;;;;;5019211;28;20932;-71
2023/12/06 02:16:42;;;;;;;1.13;0.83;;;3.50;99.90;;;;;;5024687;28;20630;-71
2023/12/06 02:19:15;;;;;;;1.00;0.90;;;3.50;99.90;;;;;;5028178;28;20253;-71
2023/12/06 02:21:40;;;;;;;0.90;0.90;;;3.50;99.90;;;;;;5028117;28;20512;-71
2023/12/06 02:24:06;;;;;;;1.00;0.67;;;3.50;99.90;;;;;;5014635;28;20468;-71
2023/12/06 02:26:32;;;;;;;0.60;0.60;;;3.50;99.90;;;;;;5008628;28;20179;-71
2023/12/06 02:28:57;;;;;;;2.10;0.90;;;3.50;99.90;;;;;;5023529;28;20171;-71
2023/12/06 02:31:22;;;;;;;0.80;0.80;;;3.50;99.90;;;;;;5023773;28;20222;-71
2023/12/06 02:33:51;;;;;;;0.97;0.70;;;3.60;99.90;;;;;;5019713;28;20656;-70
2023/12/06 02:36:20;;;;;;;0.97;0.83;;;3.50;99.90;;;;;;5016063;28;20189;-71
2023/12/06 02:38:46;;;;;;;0.70;0.70;;;3.50;99.90;;;;;;5017758;28;20441;-71
2023/12/06 02:41:16;;;;;;;0.67;0.67;;;3.60;99.90;;;;;;5025766;28;20429;-71
2023/12/06 02:43:42;;;;;;;0.90;0.90;;;3.50;99.90;;;;;;5022362;28;20499;-70
2023/12/06 02:46:08;;;;;;;0.70;0.70;;;3.50;99.90;;;;;;5019712;28;20441;-71
2023/12/06 02:48:34;;;;;;;0.90;0.80;;;3.50;99.90;;;;;;5022480;28;20436;-70
2023/12/06 02:50:59;;;;;;;0.70;0.70;;;3.50;99.90;;;;;;5017505;28;20640;-71
2023/12/06 02:53:25;;;;;;;0.83;0.83;;;3.50;99.90;;;;;;5014383;28;20202;-71
2023/12/06 02:55:50;;;;;;;0.80;0.80;;;3.50;99.90;;;;;;5014638;28;20812;-71
2023/12/06 02:58:16;;;;;;;0.80;0.80;;;3.50;99.90;;;;;;5018789;28;20185;-71
2023/12/06 03:00:41;;;;;;;0.90;0.90;;;3.50;99.90;;;;;;5017020;28;20174;-70
2023/12/06 03:03:07;;;;;;;1.07;0.80;;;3.50;99.90;;;;;;5022694;28;20249;-71
2023/12/06 03:05:32;;;;;;;1.50;1.40;;;3.50;99.90;;;;;;5014337;28;20179;-71
2023/12/06 03:07:58;;;;;;;2.03;1.83;;;3.50;99.90;;;;;;5014568;28;20187;-71
2023/12/06 03:10:23;;;;;;;0.70;0.63;;;3.50;99.90;;;;;;5021541;28;20249;-71
2023/12/06 03:12:49;;;;;;;1.23;1.13;;;3.50;99.90;;;;;;5023654;28;20210;-71
2023/12/06 03:15:14;;;;;;;0.80;0.70;;;3.50;99.90;;;;;;5024727;28;20206;-71
2023/12/06 03:17:40;;;;;;;2.20;1.20;;;3.50;99.90;;;;;;5015067;28;20203;-70
2023/12/06 03:20:09;;;;;;;1.00;0.90;;;3.60;99.90;;;;;;5021519;28;20562;-70
2023/12/06 03:22:34;;;;;;;1.57;0.77;;;3.50;99.90;;;;;;5024645;28;20225;-71
2023/12/06 03:25:00;;;;;;;0.80;0.80;;;3.50;99.90;;;;;;5013637;28;20441;-71
2023/12/06 03:27:25;;;;;;;2.40;1.97;;;3.60;99.90;;;;;;5019381;28;20190;-71
2023/12/06 03:29:51;;;;;;;0.70;0.70;;;3.60;99.90;;;;;;5021297;28;20678;-71
2023/12/06 03:32:16;;;;;;;1.20;0.80;;;3.60;99.90;;;;;;5022368;28;20197;-71
2023/12/06 03:34:42;;;;;;;0.70;0.70;;;3.60;99.90;;;;;;5018484;28;20174;-71
2023/12/06 03:37:08;;;;;;;0.90;0.70;;;3.60;99.90;;;;;;5014596;28;20645;-71
2023/12/06 03:39:33;;;;;;;1.00;0.80;;;3.60;99.90;;;;;;5024790;28;20641;-71
2023/12/06 03:41:59;;;;;;;1.73;0.73;;;3.60;99.90;;;;;;5017990;28;20468;-71
2023/12/06 03:44:25;;;;;;;1.43;0.80;;;3.60;99.90;;;;;;5022104;28;20179;-71
2023/12/06 03:46:50;;;;;;;0.70;0.70;;;3.60;99.90;;;;;;5013306;28;20174;-71
2023/12/06 03:49:16;;;;;;;2.87;0.77;;;3.70;99.90;;;;;;5014157;28;20186;-71
2023/12/06 03:51:42;;;;;;;0.50;0.43;;;3.60;99.90;;;;;;5020897;28;20244;-71
2023/12/06 03:54:07;;;;;;;1.00;0.93;;;3.70;99.90;;;;;;5020832;28;20171;-71
2023/12/06 03:56:33;;;;;;;0.77;0.70;;;3.70;99.90;;;;;;5013196;28;20509;-71
2023/12/06 03:58:58;;;;;;;0.60;0.60;;;3.70;99.90;;;;;;5016842;28;20187;-71
2023/12/06 04:01:24;;;;;;;0.60;0.50;;;3.70;99.90;;;;;;5023266;28;20262;-71
2023/12/06 04:03:49;;;;;;;0.90;0.70;;;3.70;99.90;;;;;;5024256;28;20231;-71
2023/12/06 04:06:15;;;;;;;1.20;1.10;;;3.70;99.90;;;;;;5017371;28;20194;-71
2023/12/06 04:08:40;;;;;;;1.60;0.60;;;3.70;99.90;;;;;;5019801;28;20249;-71
2023/12/06 04:11:06;;;;;;;0.67;0.60;;;3.70;99.90;;;;;;5015116;28;20645;-70
2023/12/06 04:13:31;;;;;;;0.50;0.50;;;3.70;99.90;;;;;;5019810;28;20211;-71
2023/12/06 04:15:57;;;;;;;0.60;0.60;;;3.70;99.90;;;;;;5013210;28;20175;-71
2023/12/06 04:18:22;;;;;;;1.37;0.50;;;3.70;99.90;;;;;;5013915;28;20291;-71
2023/12/06 04:20:49;;;;;;;0.50;0.50;;;3.70;99.90;;;;;;5027499;28;20249;-70
2023/12/06 04:23:14;;;;;;;1.00;0.80;;;3.80;99.90;;;;;;5021878;28;20206;-71
2023/12/06 04:25:40;;;;;;;0.93;0.60;;;3.70;99.90;;;;;;5011141;28;20425;-71
2023/12/06 04:28:05;;;;;;;0.50;0.50;;;3.70;99.90;;;;;;5020825;28;20521;-71
2023/12/06 04:30:31;;;;;;;0.50;0.50;;;3.80;99.90;;;;;;5011511;28;20198;-71
2023/12/06 04:32:56;;;;;;;1.43;0.60;;;3.70;99.90;;;;;;5018567;28;20218;-70
2023/12/06 04:35:22;;;;;;;0.50;0.50;;;3.70;99.90;;;;;;5011484;28;20183;-71
2023/12/06 04:37:47;;;;;;;0.60;0.50;;;3.80;99.90;;;;;;5011435;28;20218;-71
2023/12/06 04:40:13;;;;;;;1.20;0.90;;;3.70;99.90;;;;;;5023696;28;20256;-71
2023/12/06 04:42:38;;;;;;;0.97;0.60;;;3.80;99.90;;;;;;5022975;28;20245;-71
2023/12/06 04:45:04;;;;;;;0.50;0.50;;;3.80;99.90;;;;;;5019248;28;20194;-71
2023/12/06 04:47:30;;;;;;;0.87;0.87;;;3.80;99.90;;;;;;5020078;28;20178;-71
2023/12/06 04:49:55;;;;;;;2.03;1.37;;;3.80;99.90;;;;;;5013578;28;20430;-70
2023/12/06 04:52:22;;;;;;;0.60;0.50;;;3.80;99.90;;;;;;5018710;28;20207;-71
2023/12/06 04:54:48;;;;;;;1.73;0.70;;;3.80;99.90;;;;;;5020106;28;20736;-71
2023/12/06 04:57:14;;;;;;;0.50;0.50;;;3.90;99.90;;;;;;5016391;28;20508;-70
2023/12/06 04:59:40;;;;;;;0.97;0.60;;;3.90;99.90;;;;;;5017803;28;20829;-71
2023/12/06 05:02:06;;;;;;;0.50;0.40;;;4.00;99.90;;;;;;5012827;28;20474;-71
2023/12/06 05:04:31;;;;;;;0.50;0.50;;;4.00;99.90;;;;;;5016402;28;20175;-71
2023/12/06 05:06:57;;;;;;;0.60;0.50;;;4.00;99.90;;;;;;5023262;28;20921;-71
2023/12/06 05:09:23;;;;;;;0.50;0.40;;;4.00;99.90;;;;;;5028768;28;20183;-71
2023/12/06 05:11:48;;;;;;;0.40;0.40;;;4.00;99.90;;;;;;5011086;28;21024;-71
2023/12/06 05:14:14;;;;;;;0.60;0.53;;;4.00;99.90;;;;;;5017821;28;20699;-70
2023/12/06 05:16:39;;;;;;;1.17;0.60;;;4.00;99.90;;;;;;5018459;28;20687;-71
2023/12/06 05:19:06;;;;;;;1.63;0.80;;;4.00;99.90;;;;;;5014468;28;20175;-70
2023/12/06 05:21:32;;;;;;;0.73;0.73;;;4.00;99.90;;;;;;5011996;28;20205;-71
2023/12/06 05:23:57;;;;;;;0.70;0.50;;;4.00;99.90;;;;;;5011993;28;20521;-71
2023/12/06 05:26:25;;;;;;;0.80;0.70;;;4.00;99.90;;;;;;5022003;28;20182;-71
2023/12/06 05:28:51;;;;;;;2.80;0.60;;;4.00;99.90;;;;;;5012684;28;20183;-71
2023/12/06 05:31:17;;;;;;;1.27;0.50;;;4.00;99.90;;;;;;5008329;28;20457;-70
2023/12/06 05:33:43;;;;;;;0.87;0.80;;;4.00;99.90;;;;;;5023188;28;20445;-70
2023/12/06 05:36:08;;;;;;;0.53;0.53;;;4.10;99.90;;;;;;5019130;28;20214;-71
2023/12/06 05:38:34;;;;;;;0.93;0.73;;;4.10;99.90;;;;;;5026344;28;20183;-70
2023/12/06 05:41:00;;;;;;;0.60;0.60;;;4.10;99.90;;;;;;5015255;28;20176;-70
2023/12/06 05:43:26;;;;;;;0.80;0.60;;;4.10;99.90;;;;;;5023189;28;20256;-70
2023/12/06 05:45:51;;;;;;;2.40;0.80;;;4.10;99.90;;;;;;5016393;28;20441;-70
2023/12/06 05:48:17;;;;;;;0.80;0.57;;;4.10;99.90;;;;;;5023468;28;20571;-70
2023/12/06 05:50:42;;;;;;;1.03;0.60;;;4.00;99.90;;;;;;5023466;28;20175;-70
2023/12/06 05:53:08;;;;;;;1.10;0.97;;;4.10;99.90;;;;;;5020984;28;20206;-70
2023/12/06 05:55:33;;;;;;;3.50;1.10;;;4.10;99.90;;;;;;5017318;28;20171;-70
2023/12/06 05:57:59;;;;;;;0.93;0.80;;;4.10;99.90;;;;;;5016086;28;20171;-70
2023/12/06 06:00:25;;;;;;;0.70;0.70;;;4.10;99.90;;;;;;5023036;28;20183;-70
2023/12/06 06:02:52;;;;;;;0.60;0.53;;;4.10;99.90;;;;;;5040790;22;20316;-69
2023/12/06 06:05:18;;;;;;;0.50;0.50;;;4.10;99.90;;;;;;5034869;28;20974;-70
2023/12/06 06:07:43;;;;;;;1.43;0.93;;;4.10;99.90;;;;;;5034730;28;20420;-69
2023/12/06 06:10:09;;;;;;;1.00;0.70;;;4.10;99.90;;;;;;5034639;28;20421;-69
2023/12/06 06:12:35;;;;;;;1.27;0.70;;;4.10;99.90;;;;;;5041310;28;20206;-69
2023/12/06 06:15:00;;;;;;;1.27;0.77;;;4.10;99.90;;;;;;5042132;28;20186;-70
2023/12/06 06:17:26;;;;;;;1.23;1.10;;;4.10;99.90;;;;;;5030563;28;20418;-70
2023/12/06 06:19:52;;;;;;;0.80;0.80;;;4.10;99.90;;;;;;5034094;28;20620;-69
2023/12/06 06:22:18;;;;;;;3.50;1.00;;;4.10;99.90;;;;;;5043758;28;20527;-69
2023/12/06 06:24:43;;;;;;;1.23;0.87;;;4.00;99.90;;;;;;5035119;28;20174;-69
2023/12/06 06:27:08;;;;;;;0.60;0.60;;;4.00;99.90;;;;;;5035394;28;20238;-70
2023/12/06 06:29:34;;;;;;;1.00;0.80;;;4.00;99.90;;;;;;5039048;28;20193;-69
2023/12/06 06:32:00;;;;;;;0.73;0.73;;;4.10;99.90;;;;;;5037645;28;20209;-70
2023/12/06 06:34:25;;;;;;;1.83;0.87;;;4.10;99.90;;;;;;5038395;28;20240;-69
2023/12/06 06:36:51;;;;;;;1.10;1.00;;;4.10;99.90;;;;;;5034656;28;20232;-70
2023/12/06 06:39:16;;;;;;;2.20;1.00;;;4.00;99.90;;;;;;5030979;28;20185;-70
2023/12/06 06:41:42;;;;;;;1.30;1.20;;;4.00;99.90;;;;;;5035754;28;20189;-70
2023/12/06 06:44:07;;;;;;;1.03;0.70;;;4.00;99.90;;;;;;5037216;28;20205;-69
2023/12/06 06:46:33;;;;;;;11.50;7.77;;;4.00;99.90;;;;;;5040881;28;20232;-69
2023/12/06 06:48:59;;;;;;;1.77;1.27;;;4.00;99.90;;;;;;5022514;28;20215;-69
2023/12/06 06:51:35;;;;;;;1.00;0.90;;;4.10;99.90;;;;;;5026790;28;20731;-70
2023/12/06 06:54:06;;;;;;;0.77;0.60;;;4.10;99.90;;;;;;5031376;28;20203;-70
2023/12/06 06:56:33;;;;;;;0.80;0.80;;;4.10;99.90;;;;;;5030763;28;20949;-71
2023/12/06 06:59:01;;;;;;;0.70;0.70;;;4.10;99.90;;;;;;5041574;28;20482;-71
2023/12/06 07:01:27;;;;;;;1.00;0.80;;;4.10;99.90;;;;;;5033202;28;20447;-71
2023/12/06 07:03:53;;;;;;;1.10;1.00;;;4.10;99.90;;;;;;5037181;28;20479;-71
2023/12/06 07:06:19;;;;;;;0.80;0.80;;;4.10;99.90;;;;;;5044881;28;20182;-71
2023/12/06 07:08:44;;;;;;;1.60;0.77;;;4.10;99.90;;;;;;5032450;28;20441;-71
2023/12/06 07:11:10;;;;;;;0.90;0.90;;;4.10;99.90;;;;;;5032472;28;20206;-71
2023/12/06 07:13:36;;;;;;;3.00;1.20;;;4.10;99.90;;;;;;5039174;28;20201;-71
2023/12/06 07:16:02;;;;;;;3.33;1.70;;;4.10;99.90;;;;;;5036237;28;20261;-71
2023/12/06 07:18:28;;;;;;;2.50;1.10;;;4.20;99.90;;;;;;5031753;28;20181;-71
2023/12/06 07:20:53;;;;;;;1.00;0.80;;;4.20;99.90;;;;;;5044989;28;20433;-71
2023/12/06 07:23:19;;;;;;;1.47;0.80;;;4.20;99.90;;;;;;5039504;28;20193;-71
2023/12/06 07:25:47;;;;;;;0.73;0.73;;;4.20;99.90;;;;;;5037982;28;20636;-71
2023/12/06 07:28:13;;;;;;;0.80;0.70;;;4.20;99.90;;;;;;5037517;28;20652;-71
2023/12/06 07:30:40;;;;;;;1.00;0.90;;;4.20;99.90;;;;;;5062071;28;20480;-71
2023/12/06 07:33:07;;;;;;;1.00;0.60;;;4.30;99.90;;;;;;5040669;28;20245;-71
2023/12/06 07:35:33;;;;;;;1.20;1.07;;;4.30;99.90;;;;;;5032257;28;20424;-71
2023/12/06 07:37:59;;;;;;;0.80;0.70;;;4.30;99.90;;;;;;5033167;28;20490;-71
2023/12/06 07:40:24;;;;;;;1.23;0.77;;;4.30;99.90;;;;;;5032927;28;20421;-71
2023/12/06 07:42:50;;;;;;;1.17;0.60;;;4.30;99.90;;;;;;5036064;28;20264;-71
2023/12/06 07:45:16;;;;;;;1.40;1.10;;;4.30;99.90;;;;;;5052584;28;20181;-71
2023/12/06 07:47:42;;;;;;;3.60;1.97;;;4.40;99.90;;;;;;5053289;28;20420;-71
2023/12/06 07:50:09;;;;;;;0.80;0.80;;;4.40;99.90;;;;;;5015655;28;20257;-71
2023/12/06 07:52:36;;;;;;;1.00;1.00;;;4.40;99.90;;;;;;5013568;28;20468;-71
2023/12/06 07:55:10;;;;;;;0.73;0.73;;;4.40;99.90;;;;;;5033272;28;20417;-71
2023/12/06 07:57:36;;;;;;;1.80;1.57;;;4.50;99.90;;;;;;5032840;28;20771;-71
2023/12/06 08:00:05;;;;;;;1.57;1.30;;;4.50;99.90;;;;;;5031967;28;20428;-71
2023/12/06 08:02:32;;;;;;;1.20;1.10;;;4.50;99.90;;;;;;5038334;28;20482;-71
2023/12/06 08:04:57;;;;;;;0.93;0.93;;;4.60;99.90;;;;;;5037529;28;20463;-71
2023/12/06 08:07:24;;;;;;;2.63;1.40;;;4.60;99.90;;;;;;5044689;28;20509;-71
2023/12/06 08:09:52;;;;;;;1.10;1.10;;;4.60;99.90;;;;;;5053044;28;20573;-71
2023/12/06 08:12:17;;;;;;;1.50;1.40;;;4.60;99.90;;;;;;5052911;28;20468;-71
2023/12/06 08:14:43;;;;;;;1.53;1.23;;;4.60;99.90;;;;;;5034696;28;20421;-71
2023/12/06 08:17:09;;;;;;;3.13;1.60;;;4.60;99.90;;;;;;5032771;28;20181;-71
2023/12/06 08:19:34;;;;;;;3.93;1.47;;;4.60;99.90;;;;;;5031334;28;20918;-71
2023/12/06 08:22:00;;;;;;;1.53;1.43;;;4.60;99.90;;;;;;5033116;28;20616;-71
2023/12/06 08:24:25;;;;;;;2.47;2.27;;;4.60;99.90;;;;;;5030828;28;20228;-71
2023/12/06 08:26:51;;;;;;;2.30;2.10;;;4.70;99.90;;;;;;5032753;28;20182;-71
2023/12/06 08:29:16;;;;;;;3.20;2.90;;;4.70;99.90;;;;;;5032833;28;20170;-71
2023/12/06 08:31:42;;;;;;;3.60;3.20;;;4.70;99.90;;;;;;5031230;28;20194;-71
2023/12/06 08:34:08;;;;;;;4.73;2.83;;;4.70;99.90;;;;;;5031041;28;20195;-71
2023/12/06 08:36:34;;;;;;;3.80;3.60;;;4.70;99.90;;;;;;5032432;28;20532;-70
2023/12/06 08:38:59;;;;;;;6.50;4.53;;;4.70;99.90;;;;;;5032646;28;20425;-71
2023/12/06 08:41:25;;;;;;;5.07;3.97;;;4.70;99.90;;;;;;5032461;28;20175;-71
2023/12/06 08:43:50;;;;;;;5.53;4.63;;;4.70;99.90;;;;;;5013888;28;20249;-71
2023/12/06 08:46:16;;;;;;;6.70;5.37;;;4.60;99.90;;;;;;5025775;28;20212;-71
2023/12/06 08:48:41;;;;;;;6.47;5.57;;;4.70;99.90;;;;;;5030619;28;20206;-71
2023/12/06 08:51:08;;;;;;;6.83;6.23;;;4.70;99.90;;;;;;5032365;28;20170;-71
2023/12/06 08:53:34;;;;;;;9.53;6.77;;;4.70;99.90;;;;;;5032305;28;20186;-71
2023/12/06 08:56:00;;;;;;;6.93;5.97;;;4.70;99.90;;;;;;5032405;28;20421;-71
2023/12/06 08:58:27;;;;;;;7.80;6.70;;;4.70;99.90;;;;;;5032149;28;20491;-71
2023/12/06 09:00:53;;;;;;;7.30;6.60;;;4.70;99.90;;;;;;5030798;28;20189;-71
2023/12/06 09:03:19;;;;;;;7.40;6.70;;;4.70;99.90;;;;;;5032219;28;20461;-71
2023/12/06 09:05:44;;;;;;;7.57;6.37;;;4.70;99.90;;;;;;5030599;28;20189;-71
2023/12/06 09:08:11;;;;;;;7.10;6.40;;;4.80;99.90;;;;;;5032023;28;20445;-71
2023/12/06 09:10:38;;;;;;;8.53;7.40;;;4.80;99.90;;;;;;5016077;28;20206;-71
2023/12/06 09:13:03;;;;;;;8.43;7.53;;;4.90;99.90;;;;;;5012316;28;20461;-71
2023/12/06 09:15:29;;;;;;;8.40;6.80;;;4.90;99.90;;;;;;5012403;28;20486;-71
2023/12/06 09:17:54;;;;;;;9.13;7.20;;;4.90;99.90;;;;;;5012023;28;20186;-71
2023/12/06 09:20:20;;;;;;;9.10;7.20;;;4.90;99.90;;;;;;5013485;28;20228;-71
2023/12/06 09:22:45;;;;;;;7.93;7.17;;;4.90;99.90;;;;;;5012464;28;20195;-71
2023/12/06 09:25:11;;;;;;;9.73;7.17;;;4.80;99.90;;;;;;5012318;28;20175;-71
2023/12/06 09:27:37;;;;;;;9.10;8.10;;;4.80;99.90;;;;;;5012050;28;20284;-71
2023/12/06 09:30:03;;;;;;;8.07;7.30;;;4.80;99.90;;;;;;5022963;28;20197;-71
2023/12/06 09:32:29;;;;;;;8.90;8.00;;;4.80;99.90;;;;;;5031786;28;20216;-71
2023/12/06 09:34:55;;;;;;;11.63;8.23;;;4.90;99.90;;;;;;5030459;28;20419;-71
2023/12/06 09:37:20;;;;;;;19.97;15.63;;;4.80;99.90;;;;;;5031574;28;20910;-71
2023/12/06 09:39:46;;;;;;;9.87;8.30;;;4.80;99.90;;;;;;5023357;28;20261;-71
2023/12/06 09:42:11;;;;;;;9.90;8.90;;;4.70;99.90;;;;;;5012108;28;20230;-71
2023/12/06 09:44:39;;;;;;;8.40;7.47;;;4.70;99.90;;;;;;5012097;28;20198;-71
2023/12/06 09:47:04;;;;;;;10.13;9.03;;;4.70;99.90;;;;;;5011818;28;20175;-71
2023/12/06 09:49:30;;;;;;;10.13;8.77;;;4.60;99.90;;;;;;5013265;28;20484;-71
2023/12/06 09:52:07;;;;;;;9.37;8.47;;;4.60;99.90;;;;;;5011872;28;20247;-71
2023/12/06 09:54:32;;;;;;;10.50;8.93;;;4.70;99.90;;;;;;5010828;28;20200;-71
2023/12/06 09:56:58;;;;;;;10.20;9.13;;;4.60;99.90;;;;;;5011778;28;20414;-70
2023/12/06 09:59:23;;;;;;;9.63;8.63;;;4.50;99.90;;;;;;5016344;28;20170;-71
2023/12/06 10:01:49;;;;;;;10.73;9.50;;;4.50;99.90;;;;;;5031586;28;20636;-71
2023/12/06 10:04:14;;;;;;;11.90;10.30;;;4.40;99.90;;;;;;5029964;28;20186;-71
2023/12/06 10:06:42;;;;;;;10.77;9.13;;;4.40;99.90;;;;;;5011870;28;20186;-71
2023/12/06 10:09:10;;;;;;;9.63;8.37;;;4.40;99.90;;;;;;5013909;28;20254;-71
2023/12/06 10:11:35;;;;;;;10.40;9.00;;;4.30;99.90;;;;;;5031494;28;20547;-71
2023/12/06 10:14:02;;;;;;;11.50;10.30;;;4.30;99.90;;;;;;5031461;28;20554;-71
2023/12/06 10:16:28;;;;;;;11.00;8.70;;;4.30;99.90;;;;;;5031289;28;20163;-70
2023/12/06 10:18:54;;;;;;;12.30;10.50;;;4.30;99.90;;;;;;5031885;28;20424;-71
2023/12/06 10:21:20;;;;;;;13.20;10.00;;;4.40;99.90;;;;;;5033971;28;20433;-71
2023/12/06 10:23:54;;;;;;;10.70;9.60;;;4.40;99.90;;;;;;5035180;28;20437;-71
2023/12/06 10:26:20;;;;;;;9.53;8.37;;;4.50;99.90;;;;;;5033803;28;20184;-71
2023/12/06 10:28:45;;;;;;;10.17;8.57;;;4.50;99.90;;;;;;5034862;28;20425;-71
2023/12/06 10:31:12;;;;;;;14.17;10.20;;;4.50;99.90;;;;;;5017336;28;20179;-71
2023/12/06 10:33:39;;;;;;;9.47;8.43;;;4.60;99.90;;;;;;5015200;28;20252;-71
2023/12/06 10:36:08;;;;;;;10.33;8.43;;;4.50;99.90;;;;;;5016371;28;20430;-71
2023/12/06 10:38:36;;;;;;;9.80;8.90;;;4.60;99.90;;;;;;5015067;28;20421;-71
2023/12/06 10:41:04;;;;;;;12.13;10.00;;;4.70;99.90;;;;;;5030851;28;20428;-71
2023/12/06 10:43:31;;;;;;;10.17;8.70;;;4.70;99.90;;;;;;5034805;28;20448;-71
2023/12/06 10:45:58;;;;;;;10.90;9.30;;;4.70;99.90;;;;;;5034774;28;20467;-71
2023/12/06 10:48:24;;;;;;;11.23;7.60;;;4.70;99.90;;;;;;5033484;28;20425;-71
2023/12/06 10:50:51;;;;;;;9.70;8.30;;;4.80;99.90;;;;;;5033236;28;20437;-71
2023/12/06 10:53:17;;;;;;;11.40;10.03;;;4.70;99.90;;;;;;5025754;28;20552;-71
2023/12/06 10:55:45;;;;;;;9.20;8.30;;;4.80;99.90;;;;;;5014785;28;20414;-71
2023/12/06 10:58:11;;;;;;;9.90;8.90;;;4.90;99.90;;;;;;5014504;28;20426;-71
2023/12/06 11:00:37;;;;;;;10.93;8.33;;;4.90;99.90;;;;;;5026537;28;20451;-71
2023/12/06 11:03:02;;;;;;;9.93;8.30;;;4.90;99.90;;;;;;5034255;28;20502;-71
2023/12/06 11:05:37;;;;;;;9.73;8.67;;;4.90;99.90;;;;;;5032787;28;20181;-71
2023/12/06 11:08:40;;;;;;;9.33;8.33;;;4.90;99.90;;;;;;5034195;28;20539;-71
2023/12/06 11:11:08;;;;;;;7.43;6.73;;;4.90;99.90;;;;;;5018520;28;20421;-71
2023/12/06 11:13:37;;;;;;;9.53;8.53;;;5.00;99.90;;;;;;5014477;28;20587;-71
2023/12/06 11:16:24;;;;;;;9.60;8.33;;;4.90;99.90;;;;;;5014553;28;20414;-70
2023/12/06 11:18:51;;;;;;;9.73;8.00;;;4.90;99.90;;;;;;5014314;28;20413;-71
2023/12/06 11:21:22;;;;;;;9.70;8.70;;;4.80;99.90;;;;;;5015501;28;20422;-71
2023/12/06 11:23:48;;;;;;;10.20;9.20;;;4.80;99.90;;;;;;5014250;28;20461;-71
2023/12/06 11:26:14;;;;;;;10.53;9.43;;;4.80;99.90;;;;;;5014182;28;20970;-71
2023/12/06 11:28:41;;;;;;;9.37;8.43;;;4.80;99.90;;;;;;5014049;28;20202;-71
2023/12/06 11:31:11;;;;;;;9.60;8.60;;;4.80;99.90;;;;;;5014349;28;20469;-70
2023/12/06 11:33:37;;;;;;;9.93;8.93;;;4.90;99.90;;;;;;5014058;28;20445;-71
2023/12/06 11:36:02;;;;;;;10.37;9.07;;;4.80;99.90;;;;;;5015150;28;20792;-70
2023/12/06 11:38:35;;;;;;;10.57;9.43;;;4.80;99.90;;;;;;5012787;28;20422;-71
2023/12/06 11:41:02;;;;;;;12.03;9.70;;;4.80;99.90;;;;;;5028639;28;20175;-71
2023/12/06 11:43:37;;;;;;;9.77;8.70;;;4.80;99.90;;;;;;5033722;28;20507;-71
2023/12/06 11:46:04;;;;;;;11.50;10.00;;;4.80;99.90;;;;;;5033574;28;21187;-71
2023/12/06 11:48:34;;;;;;;8.97;8.07;;;4.80;99.90;;;;;;5033307;28;20413;-71
2023/12/06 11:51:03;;;;;;;8.50;7.67;;;4.80;99.90;;;;;;5031791;28;20495;-71
2023/12/06 11:53:30;;;;;;;9.63;8.73;;;4.80;99.90;;;;;;5033492;28;20440;-71
2023/12/06 11:55:55;;;;;;;11.80;9.43;;;4.80;99.90;;;;;;5033558;28;20500;-71
2023/12/06 11:58:29;;;;;;;8.90;8.00;;;4.90;99.90;;;;;;5033024;28;20467;-71
2023/12/06 12:00:54;;;;;;;9.90;8.70;;;4.90;99.90;;;;;;5031787;28;20955;-71
2023/12/06 12:03:20;;;;;;;11.80;9.53;;;4.90;99.90;;;;;;5064902;22;20892;-74
2023/12/06 12:05:46;;;;;;;9.73;8.60;;;4.90;99.90;;;;;;5071040;28;20173;-71
2023/12/06 12:08:12;;;;;;;9.37;8.37;;;5.00;99.90;;;;;;5072337;28;20248;-72
2023/12/06 12:10:40;;;;;;;9.70;8.80;;;5.00;99.90;;;;;;5072543;28;20760;-72
2023/12/06 12:13:15;;;;;;;11.87;8.83;;;4.90;99.90;;;;;;5064919;28;20475;-71
2023/12/06 12:15:40;;;;;;;12.07;10.43;;;4.80;99.90;;;;;;5051907;28;20424;-72
2023/12/06 12:18:06;;;;;;;12.40;8.77;;;4.70;99.90;;;;;;5052876;28;20424;-71
2023/12/06 12:20:36;;;;;;;9.87;8.97;;;4.70;99.90;;;;;;5051319;28;20689;-72
2023/12/06 12:23:01;;;;;;;10.40;9.30;;;4.70;99.90;;;;;;5052824;28;20200;-72
2023/12/06 12:25:27;;;;;;;9.17;8.23;;;4.80;99.90;;;;;;5052848;28;20852;-71
2023/12/06 12:27:52;;;;;;;8.60;7.80;;;4.80;99.90;;;;;;5052580;28;20176;-71
2023/12/06 12:30:18;;;;;;;10.93;9.80;;;4.80;99.90;;;;;;5045750;28;20205;-73
2023/12/06 12:32:51;;;;;;;11.00;8.60;;;4.80;99.90;;;;;;5032717;28;20212;-72
2023/12/06 12:35:17;;;;;;;13.83;8.87;;;4.80;99.90;;;;;;5036231;28;20635;-73
2023/12/06 12:37:44;;;;;;;9.40;8.50;;;4.70;99.90;;;;;;5052573;28;20435;-73
2023/12/06 12:40:10;;;;;;;10.50;9.10;;;4.80;99.90;;;;;;5051008;28;20420;-73
2023/12/06 12:42:40;;;;;;;11.10;8.80;;;4.80;99.90;;;;;;5052246;28;20466;-73
2023/12/06 12:45:07;;;;;;;10.20;8.47;;;4.80;99.90;;;;;;5052590;28;20465;-72
2023/12/06 12:47:32;;;;;;;11.13;10.00;;;4.90;99.90;;;;;;5052210;28;20428;-72
2023/12/06 12:49:58;;;;;;;10.27;8.83;;;4.90;99.90;;;;;;5050804;28;20425;-73